createdAt,value
2022-11-19T00:01:34.395Z,9.85
2022-11-19T00:04:02.226Z,11.00
2022-11-19T00:06:31.392Z,9.21
2022-11-19T00:08:59.268Z,7.97
2022-11-19T00:11:46.128Z,10.06
2022-11-19T00:14:14.624Z,11.02
2022-11-19T00:16:43.689Z,9.96
2022-11-19T00:19:11.577Z,10.11
2022-11-19T00:21:40.831Z,10.32
2022-11-19T00:24:09.277Z,10.04
2022-11-19T00:26:37.123Z,9.45
2022-11-19T00:29:04.893Z,10.24
2022-11-19T00:31:32.787Z,8.86
2022-11-19T00:34:00.666Z,10.27
2022-11-19T00:36:28.501Z,10.21
2022-11-19T00:38:57.888Z,9.55
2022-11-19T00:41:25.888Z,10.25
2022-11-19T00:43:53.722Z,10.25
2022-11-19T00:46:22.267Z,9.74
2022-11-19T00:48:50.767Z,8.80
2022-11-19T00:51:19.454Z,10.52
2022-11-19T00:53:47.363Z,10.45
2022-11-19T00:56:17.466Z,9.62
2022-11-19T00:58:45.288Z,9.59
2022-11-19T01:01:13.699Z,9.62
2022-11-19T01:03:41.906Z,9.85
2022-11-19T01:06:09.906Z,9.51
2022-11-19T01:11:07.624Z,7.63
2022-11-19T01:13:42.913Z,10.22
2022-11-19T01:16:13.645Z,9.70
2022-11-19T01:18:43.247Z,7.64
2022-11-19T01:21:12.085Z,8.36
2022-11-19T01:23:40.020Z,8.46
2022-11-19T01:26:08.220Z,9.55
2022-11-19T01:28:36.027Z,7.21
2022-11-19T01:31:09.091Z,9.31
2022-11-19T01:33:37.666Z,8.97
2022-11-19T01:36:17.266Z,7.17
2022-11-19T01:38:50.722Z,9.14
2022-11-19T01:41:18.957Z,10.21
2022-11-19T01:43:47.803Z,8.30
2022-11-19T01:46:19.953Z,9.44
2022-11-19T01:48:58.470Z,10.09
2022-11-19T01:51:27.146Z,8.33
2022-11-19T01:55:03.513Z,9.79
2022-11-19T01:57:31.372Z,7.66
2022-11-19T02:00:02.268Z,10.07
2022-11-19T02:06:16.610Z,9.39
2022-11-19T02:08:45.361Z,10.11
2022-11-19T02:11:28.094Z,9.93
2022-11-19T02:14:04.154Z,7.53
2022-11-19T02:16:37.669Z,10.14
2022-11-19T02:19:52.478Z,9.13
2022-11-19T02:25:21.027Z,9.23
2022-11-19T02:28:22.648Z,10.10
2022-11-19T02:31:02.122Z,9.97
2022-11-19T02:33:30.907Z,9.92
2022-11-19T02:36:02.278Z,9.27
2022-11-19T02:38:32.001Z,9.59
2022-11-19T02:41:00.624Z,9.99
2022-11-19T02:43:33.238Z,9.54
2022-11-19T02:46:07.272Z,9.91
2022-11-19T02:48:36.853Z,9.45
2022-11-19T02:51:04.997Z,9.78
2022-11-19T02:53:32.637Z,9.79
2022-11-19T02:56:14.277Z,9.69
2022-11-19T02:59:01.019Z,9.63
2022-11-19T03:01:48.113Z,9.49
2022-11-19T03:04:30.744Z,9.57
2022-11-19T03:06:58.810Z,9.57
2022-11-19T03:09:26.559Z,9.50
2022-11-19T03:11:58.514Z,8.85
2022-11-19T03:14:45.052Z,9.47
2022-11-19T03:17:16.519Z,9.39
2022-11-19T03:19:45.528Z,9.43
2022-11-19T03:22:16.749Z,9.43
2022-11-19T03:24:45.554Z,9.36
2022-11-19T03:27:14.620Z,9.31
2022-11-19T03:29:44.110Z,9.20
2022-11-19T03:32:14.240Z,9.17
2022-11-19T03:34:41.961Z,8.99
2022-11-19T03:37:13.923Z,9.08
2022-11-19T03:39:41.650Z,9.03
2022-11-19T03:42:12.390Z,9.10
2022-11-19T03:44:41.886Z,8.61
2022-11-19T03:47:12.804Z,9.03
2022-11-19T03:49:44.002Z,9.00
2022-11-19T03:52:15.747Z,8.98
2022-11-19T03:54:43.441Z,8.90
2022-11-19T03:57:13.105Z,8.79
2022-11-19T03:59:40.981Z,8.98
2022-11-19T04:02:15.382Z,8.69
2022-11-19T04:04:44.423Z,8.83
2022-11-19T04:07:13.369Z,8.38
2022-11-19T04:09:41.468Z,8.61
2022-11-19T04:12:10.511Z,8.77
2022-11-19T04:14:39.216Z,8.71
2022-11-19T04:17:06.991Z,8.70
2022-11-19T04:19:34.796Z,8.71
2022-11-19T04:22:06.106Z,8.68
2022-11-19T04:24:34.989Z,8.01
2022-11-19T04:30:06.470Z,5.25
2022-11-19T04:33:14.075Z,8.52
2022-11-19T04:36:10.131Z,6.37
2022-11-19T04:49:08.251Z,7.38
2022-11-19T04:52:07.094Z,5.11
2022-11-19T04:58:43.200Z,8.56
2022-11-19T05:01:24.114Z,7.19
2022-11-19T05:05:03.234Z,5.06
2022-11-19T05:08:04.849Z,7.42
2022-11-19T05:10:52.542Z,6.24
2022-11-19T05:13:37.914Z,7.69
2022-11-19T05:16:26.324Z,8.47
2022-11-19T05:19:18.573Z,8.34
2022-11-19T05:26:12.770Z,8.54
2022-11-19T05:32:19.460Z,8.55
2022-11-19T05:34:47.530Z,8.28
2022-11-19T05:37:16.171Z,7.23
2022-11-19T05:39:45.534Z,7.22
2022-11-19T05:42:14.719Z,7.81
2022-11-19T05:44:43.410Z,7.83
2022-11-19T05:47:12.131Z,7.97
2022-11-19T05:49:42.405Z,7.32
2022-11-19T05:52:11.299Z,8.04
2022-11-19T05:54:40.031Z,7.78
2022-11-19T06:05:26.669Z,5.50
2022-11-19T07:12:11.828Z,6.48
2022-11-19T07:14:39.773Z,7.30
2022-11-19T07:17:07.613Z,6.25
2022-11-19T07:19:35.520Z,7.99
2022-11-19T07:22:03.505Z,7.53
2022-11-19T07:24:31.389Z,6.32
2022-11-19T07:26:59.351Z,5.04
2022-11-19T07:29:28.437Z,8.06
2022-11-19T07:31:56.403Z,6.54
2022-11-19T07:34:24.375Z,8.09
2022-11-19T07:36:52.789Z,8.13
2022-11-19T07:39:29.845Z,8.13
2022-11-19T07:42:15.782Z,6.10
2022-11-19T07:44:45.302Z,5.50
2022-11-19T07:47:13.362Z,5.95
2022-11-19T07:49:41.655Z,7.44
2022-11-19T07:52:14.397Z,7.23
2022-11-19T07:54:42.880Z,5.94
2022-11-19T07:57:35.472Z,6.74
2022-11-19T08:00:44.204Z,6.13
2022-11-19T08:03:12.307Z,8.08
2022-11-19T08:05:50.302Z,7.51
2022-11-19T08:08:18.201Z,7.04
2022-11-19T08:10:48.903Z,6.60
2022-11-19T08:13:16.742Z,7.79
2022-11-19T08:15:47.803Z,6.92
2022-11-19T08:18:18.931Z,7.00
2022-11-19T08:20:52.247Z,8.25
2022-11-19T08:23:29.821Z,6.28
2022-11-19T08:25:58.213Z,6.78
2022-11-19T08:28:28.516Z,7.14
2022-11-19T08:30:58.335Z,5.72
2022-11-19T08:33:31.281Z,7.74
2022-11-19T08:36:01.996Z,6.65
2022-11-19T08:38:37.267Z,4.99
2022-11-19T08:41:25.587Z,5.22
2022-11-19T08:44:03.900Z,8.40
2022-11-19T08:46:33.169Z,8.08
2022-11-19T08:49:20.405Z,8.02
2022-11-19T08:52:21.748Z,7.39
2022-11-19T08:54:50.105Z,7.88
2022-11-19T08:57:34.845Z,7.96
2022-11-19T09:00:06.487Z,6.39
2022-11-19T09:03:14.875Z,6.24
2022-11-19T09:05:49.518Z,7.94
2022-11-19T09:12:27.244Z,5.77
2022-11-19T09:15:36.330Z,8.08
2022-11-19T09:18:34.830Z,8.80
2022-11-19T09:21:04.450Z,8.81
2022-11-19T09:23:34.636Z,6.87
2022-11-19T09:26:20.508Z,7.62
2022-11-19T09:28:57.311Z,7.73
2022-11-19T09:31:28.122Z,7.77
2022-11-19T09:34:09.249Z,8.70
2022-11-19T09:40:34.376Z,5.45
2022-11-19T09:43:15.200Z,5.78
2022-11-19T09:45:53.022Z,6.54
2022-11-19T09:48:28.019Z,8.15
2022-11-19T09:51:04.081Z,8.87
2022-11-19T09:53:34.563Z,7.30
2022-11-19T09:56:07.645Z,7.65
2022-11-19T09:58:39.806Z,6.98
2022-11-19T10:01:33.255Z,8.64
2022-11-19T10:04:02.168Z,6.41
2022-11-19T10:06:44.090Z,5.18
2022-11-19T10:09:38.574Z,7.36
2022-11-19T10:12:42.257Z,7.19
2022-11-19T10:15:37.182Z,8.41
2022-11-19T10:18:16.908Z,4.54
2022-11-19T10:21:03.758Z,5.92
2022-11-19T10:23:46.293Z,6.01
2022-11-19T10:26:20.050Z,6.90
2022-11-19T10:29:18.466Z,8.20
2022-11-19T10:31:56.425Z,6.99
2022-11-19T10:34:30.244Z,6.75
2022-11-19T10:37:03.045Z,5.48
2022-11-19T10:39:44.723Z,6.66
2022-11-19T10:42:26.288Z,7.11
2022-11-19T10:45:17.975Z,7.80
2022-11-19T10:48:08.856Z,5.00
2022-11-19T10:50:44.991Z,8.34
2022-11-19T10:53:21.104Z,7.13
2022-11-19T10:55:57.402Z,8.34
2022-11-19T10:58:32.090Z,7.64
2022-11-19T11:01:01.261Z,8.33
2022-11-19T11:03:32.558Z,7.66
2022-11-19T11:06:02.037Z,8.22
2022-11-19T11:08:31.296Z,6.60
2022-11-19T11:11:00.826Z,7.75
2022-11-19T11:13:56.138Z,6.04
2022-11-19T11:16:24.950Z,7.09
2022-11-19T11:18:53.652Z,8.17
2022-11-19T11:21:40.622Z,5.31
2022-11-19T11:24:08.632Z,7.20
2022-11-19T11:26:38.200Z,8.23
2022-11-19T11:29:08.695Z,6.25
2022-11-19T11:31:38.605Z,6.82
2022-11-19T11:34:07.125Z,6.95
2022-11-19T11:36:36.623Z,8.20
2022-11-19T11:39:05.135Z,7.64
2022-11-19T11:44:38.362Z,6.42
2022-11-19T11:47:14.056Z,7.89
2022-11-19T11:49:42.754Z,7.09
2022-11-19T11:52:21.055Z,7.52
2022-11-19T11:54:56.816Z,5.81
2022-11-19T11:57:27.514Z,7.20
2022-11-19T11:59:55.415Z,7.28
2022-11-19T12:02:27.143Z,8.39
2022-11-19T12:04:55.278Z,7.81
2022-11-19T12:07:53.701Z,5.68
2022-11-19T12:10:27.700Z,6.95
2022-11-19T12:13:07.268Z,7.39
2022-11-19T12:15:41.306Z,8.25
2022-11-19T12:18:12.037Z,7.75
2022-11-19T12:20:41.780Z,5.99
2022-11-19T12:23:17.418Z,7.75
2022-11-19T12:25:49.709Z,7.77
2022-11-19T12:28:31.997Z,7.33
2022-11-19T12:31:06.008Z,8.18
2022-11-19T12:33:41.139Z,8.72
2022-11-19T12:36:13.011Z,8.94
2022-11-19T12:38:45.582Z,5.92
2022-11-19T12:41:27.956Z,7.47
2022-11-19T12:43:58.139Z,5.81
2022-11-19T12:46:39.093Z,7.51
2022-11-19T12:49:36.424Z,7.01
2022-11-19T12:52:08.852Z,8.22
2022-11-19T12:54:45.088Z,6.14
2022-11-19T12:57:25.468Z,7.74
2022-11-19T13:00:05.879Z,7.41
2022-11-19T13:02:38.151Z,6.35
2022-11-19T13:05:09.548Z,6.75
2022-11-19T13:07:38.765Z,9.15
2022-11-19T13:10:13.545Z,8.34
2022-11-19T13:12:43.996Z,8.32
2022-11-19T13:15:18.070Z,9.20
2022-11-19T13:17:46.485Z,6.95
2022-11-19T13:20:21.804Z,9.21
2022-11-19T13:22:49.644Z,8.53
2022-11-19T13:25:19.508Z,8.54
2022-11-19T13:27:50.353Z,8.66
2022-11-19T13:30:20.939Z,8.56
2022-11-19T13:32:52.480Z,5.92
2022-11-19T13:35:21.640Z,6.85
2022-11-19T13:37:58.253Z,8.49
2022-11-19T13:40:28.151Z,7.35
2022-11-19T13:46:07.056Z,8.75
2022-11-19T13:48:35.739Z,9.02
2022-11-19T13:51:04.395Z,8.34
2022-11-19T13:53:33.738Z,7.90
2022-11-19T13:56:01.626Z,7.79
2022-11-19T13:58:33.386Z,8.89
2022-11-19T14:01:31.716Z,8.13
2022-11-19T14:04:15.979Z,7.93
2022-11-19T14:07:09.811Z,8.87
2022-11-19T14:09:39.257Z,8.34
2022-11-19T14:12:26.532Z,7.88
2022-11-19T14:15:19.435Z,7.57
2022-11-19T14:18:08.157Z,8.25
2022-11-19T14:20:55.761Z,7.91
2022-11-19T14:24:00.748Z,8.16
2022-11-19T14:27:03.634Z,8.86
2022-11-19T14:29:54.056Z,8.80
2022-11-19T14:32:30.737Z,8.78
2022-11-19T14:35:42.367Z,6.84
2022-11-19T14:38:35.910Z,8.79
2022-11-19T14:41:22.765Z,6.07
2022-11-19T14:44:12.951Z,8.11
2022-11-19T14:46:42.301Z,8.29
2022-11-19T14:49:33.119Z,8.67
2022-11-19T14:52:02.657Z,8.40
2022-11-19T14:54:36.507Z,7.48
2022-11-19T14:57:07.221Z,8.07
2022-11-19T14:59:37.486Z,8.06
2022-11-19T15:02:13.074Z,6.78
2022-11-19T15:04:42.977Z,8.91
2022-11-19T15:07:13.096Z,7.81
2022-11-19T15:10:24.940Z,6.49
2022-11-19T15:13:03.607Z,8.09
2022-11-19T15:15:36.965Z,8.11
2022-11-19T15:18:25.448Z,6.63
2022-11-19T15:21:03.292Z,5.94
2022-11-19T15:23:35.233Z,6.61
2022-11-19T15:26:10.676Z,4.85
2022-11-19T15:28:43.698Z,7.72
2022-11-19T15:31:25.410Z,6.53
2022-11-19T15:34:15.194Z,8.30
2022-11-19T15:36:43.841Z,6.37
2022-11-19T15:39:16.427Z,5.28
2022-11-19T15:42:00.256Z,8.27
2022-11-19T15:44:29.884Z,7.55
2022-11-19T15:46:58.999Z,6.24
2022-11-19T15:49:27.956Z,7.44
2022-11-19T15:52:00.282Z,8.14
2022-11-19T15:54:30.466Z,6.12
2022-11-19T15:56:59.460Z,6.12
2022-11-19T15:59:27.617Z,8.17
2022-11-19T16:02:00.232Z,7.08
2022-11-19T16:04:32.546Z,6.16
2022-11-19T16:07:00.491Z,6.52
2022-11-19T16:09:30.077Z,7.44
2022-11-19T16:12:15.633Z,7.09
2022-11-19T16:15:07.370Z,8.06
2022-11-19T16:17:43.895Z,7.77
2022-11-19T16:20:21.331Z,8.02
2022-11-19T16:22:52.384Z,7.38
2022-11-19T16:25:31.124Z,7.17
2022-11-19T16:28:05.769Z,7.91
2022-11-19T16:30:40.880Z,7.15
2022-11-19T16:33:14.008Z,7.46
2022-11-19T16:35:43.345Z,6.55
2022-11-19T16:38:15.529Z,7.73
2022-11-19T16:41:02.703Z,7.06
2022-11-19T16:43:30.597Z,7.02
2022-11-19T16:45:58.392Z,6.85
2022-11-19T16:48:55.105Z,7.66
2022-11-19T16:51:36.855Z,6.40
2022-11-19T16:54:05.635Z,6.66
2022-11-19T16:56:36.502Z,7.55
2022-11-19T16:59:05.428Z,6.67
2022-11-19T17:01:33.295Z,5.77
2022-11-19T17:04:03.540Z,6.52
2022-11-19T17:06:32.652Z,7.00
2022-11-19T17:09:01.260Z,4.98
2022-11-19T17:12:08.635Z,7.41
2022-11-19T17:14:48.189Z,5.40
2022-11-19T17:17:26.749Z,6.43
2022-11-19T17:19:56.380Z,4.88
2022-11-19T17:22:24.872Z,5.64
2022-11-19T17:24:52.950Z,6.21
2022-11-19T17:27:26.719Z,4.43
2022-11-19T17:29:56.946Z,6.00
2022-11-19T17:32:24.856Z,6.30
2022-11-19T17:34:55.261Z,4.02
2022-11-19T17:37:23.089Z,7.46
2022-11-19T17:39:51.066Z,7.49
2022-11-19T17:42:36.600Z,7.54
2022-11-19T17:45:10.824Z,4.77
2022-11-19T17:47:39.068Z,5.51
2022-11-19T17:50:08.001Z,4.57
2022-11-19T17:52:35.854Z,7.57
2022-11-19T17:55:11.423Z,5.54
2022-11-19T17:57:42.491Z,6.97
2022-11-19T18:00:13.281Z,5.66
2022-11-19T18:02:41.169Z,6.78
2022-11-19T18:05:14.575Z,6.33
2022-11-19T18:07:42.547Z,7.45
2022-11-19T18:10:10.714Z,6.70
2022-11-19T18:12:38.590Z,6.18
2022-11-19T18:15:07.223Z,7.35
2022-11-19T18:17:36.428Z,7.28
2022-11-19T18:20:04.619Z,7.24
2022-11-19T18:22:32.542Z,6.35
2022-11-19T18:25:00.650Z,7.15
2022-11-19T18:27:28.468Z,6.65
2022-11-19T18:29:56.672Z,5.24
2022-11-19T18:32:24.583Z,6.31
2022-11-19T18:34:57.935Z,6.31
2022-11-19T18:37:29.285Z,4.56
2022-11-19T18:39:57.377Z,5.76
2022-11-19T18:42:29.697Z,5.37
2022-11-19T18:44:56.478Z,4.31
2022-11-19T18:47:26.334Z,4.82
2022-11-19T18:49:55.973Z,4.77
2022-11-19T18:52:24.191Z,6.15
2022-11-19T18:54:52.239Z,4.07
2022-11-19T18:57:20.128Z,4.92
2022-11-19T18:59:48.109Z,5.29
2022-11-19T19:02:17.157Z,5.47
2022-11-19T19:04:50.869Z,4.85
2022-11-19T19:07:20.507Z,5.62
2022-11-19T19:09:48.386Z,4.89
2022-11-19T19:12:18.181Z,4.47
2022-11-19T19:14:47.083Z,6.59
2022-11-19T19:17:15.495Z,5.11
2022-11-19T19:19:43.305Z,6.28
2022-11-19T19:22:11.068Z,6.32
2022-11-19T19:24:40.628Z,5.95
2022-11-19T19:27:08.497Z,7.11
2022-11-19T19:29:36.724Z,7.06
2022-11-19T19:32:04.765Z,4.26
2022-11-19T19:34:32.731Z,4.59
2022-11-19T19:37:00.612Z,7.15
2022-11-19T19:39:28.582Z,6.18
2022-11-19T19:41:57.991Z,5.83
2022-11-19T19:44:25.839Z,5.78
2022-11-19T19:46:53.828Z,6.55
2022-11-19T19:49:22.369Z,5.92
2022-11-19T19:51:50.879Z,4.93
2022-11-19T19:54:18.716Z,4.22
2022-11-19T19:56:46.677Z,5.24
2022-11-19T19:59:16.201Z,6.17
2022-11-19T20:01:45.269Z,5.83
2022-11-19T20:04:13.238Z,5.73
2022-11-19T20:06:42.349Z,6.90
2022-11-19T20:09:10.311Z,6.90
2022-11-19T20:11:38.886Z,6.41
2022-11-19T20:14:06.966Z,6.19
2022-11-19T20:16:36.368Z,4.13
2022-11-19T20:19:04.267Z,4.80
2022-11-19T20:21:34.052Z,5.59
2022-11-19T20:24:04.878Z,5.97
2022-11-19T20:26:35.281Z,4.97
2022-11-19T20:29:04.103Z,6.88
2022-11-19T20:31:32.020Z,5.86
2022-11-19T20:34:01.923Z,6.77
2022-11-19T20:36:31.183Z,6.66
2022-11-19T20:38:59.164Z,4.85
2022-11-19T20:41:44.557Z,6.15
2022-11-19T20:44:22.206Z,5.93
2022-11-19T20:46:51.306Z,7.05
2022-11-19T20:49:21.678Z,7.39
2022-11-19T20:51:49.674Z,5.78
2022-11-19T20:54:17.767Z,6.43
2022-11-19T20:56:45.889Z,5.22
2022-11-19T20:59:14.080Z,7.32
2022-11-19T21:01:42.715Z,6.18
2022-11-19T21:04:11.754Z,6.70
2022-11-19T21:06:41.417Z,7.74
2022-11-19T21:09:10.004Z,5.37
2022-11-19T21:11:37.945Z,5.01
2022-11-19T21:14:06.334Z,7.83
2022-11-19T21:16:34.638Z,6.39
2022-11-19T21:19:03.386Z,7.48
2022-11-19T21:21:31.716Z,5.90
2022-11-19T21:24:01.596Z,6.15
2022-11-19T21:26:29.733Z,5.50
2022-11-19T21:28:59.182Z,7.14
2022-11-19T21:31:38.483Z,6.73
2022-11-19T21:34:07.882Z,7.22
2022-11-19T21:36:35.882Z,5.81
2022-11-19T21:39:05.611Z,7.09
2022-11-19T21:41:33.533Z,6.70
2022-11-19T21:44:01.807Z,5.14
2022-11-19T21:46:29.881Z,5.75
2022-11-19T21:48:57.812Z,4.69
2022-11-19T21:51:25.879Z,5.74
2022-11-19T21:53:55.214Z,6.94
2022-11-19T21:56:24.496Z,7.61
2022-11-19T21:58:52.899Z,6.37
2022-11-19T22:01:20.874Z,7.55
2022-11-19T22:03:48.820Z,6.86
2022-11-19T22:06:16.693Z,6.85
2022-11-19T22:08:44.537Z,6.90
2022-11-19T22:11:31.700Z,7.02
2022-11-19T22:14:02.789Z,5.18
2022-11-19T22:16:30.809Z,6.10
2022-11-19T22:18:58.644Z,7.11
2022-11-19T22:21:26.914Z,6.37
2022-11-19T22:23:54.790Z,5.12
2022-11-19T22:26:22.689Z,4.67
2022-11-19T22:28:50.611Z,6.27
2022-11-19T22:31:20.295Z,6.75
2022-11-19T22:33:51.527Z,6.18
2022-11-19T22:36:20.031Z,6.19
2022-11-19T22:38:48.152Z,5.42
2022-11-19T22:41:17.432Z,5.29
2022-11-19T22:43:45.504Z,5.35
2022-11-19T22:46:14.048Z,7.08
2022-11-19T22:48:43.184Z,7.20
2022-11-19T22:51:12.596Z,6.44
2022-11-19T22:53:40.417Z,4.95
2022-11-19T22:56:09.793Z,6.87
2022-11-19T22:58:37.775Z,7.56
2022-11-19T23:01:05.698Z,4.85
2022-11-19T23:03:33.677Z,7.08
2022-11-19T23:06:02.871Z,6.33
2022-11-19T23:08:30.963Z,4.96
2022-11-19T23:10:59.998Z,6.80
2022-11-19T23:13:31.922Z,6.64
2022-11-19T23:16:05.398Z,5.80
2022-11-19T23:18:34.245Z,5.94
2022-11-19T23:21:04.636Z,5.60
2022-11-19T23:23:35.004Z,7.52
2022-11-19T23:26:04.692Z,6.57
2022-11-19T23:28:32.942Z,5.58
2022-11-19T23:31:04.084Z,6.61
2022-11-19T23:33:31.978Z,7.00
2022-11-19T23:36:05.263Z,6.05
2022-11-19T23:38:33.126Z,5.23
2022-11-19T23:41:01.029Z,6.16
2022-11-19T23:43:36.263Z,7.76
2022-11-19T23:46:04.485Z,5.99
2022-11-19T23:48:32.556Z,6.32
2022-11-19T23:51:07.481Z,6.53
2022-11-19T23:53:35.661Z,7.72
2022-11-19T23:56:03.897Z,7.74
2022-11-19T23:58:31.654Z,5.65
